createdAt,value
2022-11-19T00:01:35.477Z,5.10
2022-11-19T00:04:06.612Z,5.20
2022-11-19T00:06:33.730Z,5.10
2022-11-19T00:09:05.517Z,5.10
2022-11-19T00:11:50.923Z,5.10
2022-11-19T00:14:17.960Z,5.10
2022-11-19T00:16:45.553Z,5.00
2022-11-19T00:19:13.154Z,5.00
2022-11-19T00:21:40.273Z,5.00
2022-11-19T00:24:08.016Z,5.00
2022-11-19T00:26:35.699Z,4.90
2022-11-19T00:29:02.969Z,4.90
2022-11-19T00:31:29.938Z,4.90
2022-11-19T00:33:56.987Z,4.90
2022-11-19T00:36:27.072Z,5.00
2022-11-19T00:38:54.890Z,5.00
2022-11-19T00:41:24.768Z,5.00
2022-11-19T00:43:51.790Z,5.00
2022-11-19T00:46:19.901Z,5.00
2022-11-19T00:48:48.562Z,5.00
2022-11-19T00:51:17.534Z,5.00
2022-11-19T00:53:44.740Z,4.90
2022-11-19T00:56:14.228Z,4.90
2022-11-19T00:58:41.988Z,4.90
2022-11-19T01:01:10.000Z,4.80
2022-11-19T01:03:38.384Z,4.80
2022-11-19T01:06:06.021Z,4.80
2022-11-19T01:08:33.079Z,4.80
2022-11-19T01:11:14.658Z,4.80
2022-11-19T01:13:42.184Z,4.80
2022-11-19T01:16:20.068Z,4.70
2022-11-19T01:18:48.805Z,4.70
2022-11-19T01:21:17.697Z,4.60
2022-11-19T01:23:46.013Z,4.70
2022-11-19T01:26:14.723Z,4.60
2022-11-19T01:28:42.605Z,4.70
2022-11-19T01:31:21.911Z,4.70
2022-11-19T01:33:55.266Z,4.60
2022-11-19T01:36:27.953Z,4.60
2022-11-19T01:38:55.289Z,4.60
2022-11-19T01:41:25.136Z,4.50
2022-11-19T01:44:04.126Z,4.50
2022-11-19T01:46:33.767Z,4.50
2022-11-19T01:49:27.054Z,4.50
2022-11-19T01:52:03.213Z,4.50
2022-11-19T01:54:39.652Z,4.50
2022-11-19T01:57:14.490Z,4.40
2022-11-19T01:59:43.115Z,4.40
2022-11-19T02:02:10.365Z,4.40
2022-11-19T02:04:37.638Z,4.40
2022-11-19T02:07:04.767Z,4.30
2022-11-19T02:09:33.658Z,4.30
2022-11-19T02:12:32.401Z,4.30
2022-11-19T02:15:09.895Z,4.30
2022-11-19T02:17:42.629Z,4.20
2022-11-19T02:20:18.685Z,4.20
2022-11-19T02:23:05.590Z,4.20
2022-11-19T02:26:09.345Z,4.20
2022-11-19T02:28:58.508Z,4.20
2022-11-19T02:31:43.595Z,4.20
2022-11-19T02:34:19.689Z,4.10
2022-11-19T02:36:46.587Z,4.10
2022-11-19T02:39:38.777Z,4.10
2022-11-19T02:42:28.161Z,4.10
2022-11-19T02:45:05.121Z,4.10
2022-11-19T02:47:35.107Z,4.00
2022-11-19T02:50:13.623Z,4.00
2022-11-19T02:52:43.917Z,4.10
2022-11-19T02:55:17.429Z,4.00
2022-11-19T02:57:51.571Z,4.00
2022-11-19T03:00:37.522Z,4.00
2022-11-19T03:03:33.675Z,4.00
2022-11-19T03:06:05.938Z,3.90
2022-11-19T03:08:33.238Z,3.80
2022-11-19T03:11:16.087Z,3.80
2022-11-19T03:14:13.804Z,3.80
2022-11-19T03:16:56.002Z,3.60
2022-11-19T03:19:48.633Z,3.60
2022-11-19T03:22:20.498Z,3.50
2022-11-19T03:25:09.885Z,3.50
2022-11-19T03:27:47.497Z,3.60
2022-11-19T03:30:16.277Z,3.50
2022-11-19T03:32:59.469Z,3.50
2022-11-19T03:35:46.713Z,3.60
2022-11-19T03:38:23.897Z,3.60
2022-11-19T03:40:51.746Z,3.60
2022-11-19T03:43:22.643Z,3.60
2022-11-19T03:45:51.998Z,3.60
2022-11-19T03:48:26.248Z,3.60
2022-11-19T03:50:58.322Z,3.60
2022-11-19T03:53:26.195Z,3.60
2022-11-19T03:55:53.014Z,3.50
2022-11-19T03:58:26.354Z,3.50
2022-11-19T04:00:56.482Z,3.50
2022-11-19T04:03:26.211Z,3.50
2022-11-19T04:05:55.901Z,3.50
2022-11-19T04:08:22.921Z,3.40
2022-11-19T04:10:49.921Z,3.40
2022-11-19T04:13:17.027Z,3.40
2022-11-19T04:15:44.102Z,3.40
2022-11-19T04:18:11.217Z,3.40
2022-11-19T04:20:38.342Z,3.40
2022-11-19T04:23:05.353Z,3.40
2022-11-19T04:25:32.926Z,3.30
2022-11-19T04:27:59.849Z,3.30
2022-11-19T04:30:26.893Z,3.30
2022-11-19T04:32:56.967Z,3.30
2022-11-19T04:35:27.031Z,3.30
2022-11-19T04:37:57.058Z,3.30
2022-11-19T04:40:24.147Z,3.30
2022-11-19T04:42:51.707Z,3.30
2022-11-19T04:45:18.968Z,3.30
2022-11-19T04:47:46.101Z,3.30
2022-11-19T04:50:13.464Z,3.30
2022-11-19T04:52:41.537Z,3.30
2022-11-19T04:55:10.875Z,3.30
2022-11-19T04:57:37.972Z,3.30
2022-11-19T05:00:11.283Z,3.20
2022-11-19T05:02:38.374Z,3.20
2022-11-19T05:05:07.222Z,3.20
2022-11-19T05:07:42.899Z,3.20
2022-11-19T05:10:11.223Z,3.20
2022-11-19T05:12:38.973Z,3.20
2022-11-19T05:15:06.560Z,3.20
2022-11-19T05:17:36.044Z,3.20
2022-11-19T05:20:04.122Z,3.10
2022-11-19T05:22:31.630Z,3.10
2022-11-19T05:25:01.404Z,3.10
2022-11-19T05:27:31.573Z,3.10
2022-11-19T05:29:58.681Z,3.00
2022-11-19T05:32:28.562Z,3.00
2022-11-19T05:34:55.899Z,3.00
2022-11-19T05:37:28.787Z,2.90
2022-11-19T05:39:57.252Z,2.90
2022-11-19T05:42:30.481Z,2.90
2022-11-19T05:44:57.870Z,2.90
2022-11-19T05:47:25.039Z,2.90
2022-11-19T05:49:53.152Z,2.90
2022-11-19T05:52:20.405Z,2.90
2022-11-19T05:54:47.524Z,2.90
2022-11-19T05:57:23.873Z,2.80
2022-11-19T05:59:50.970Z,2.80
2022-11-19T06:02:17.996Z,2.80
2022-11-19T06:04:45.168Z,2.80
2022-11-19T06:07:19.617Z,2.80
2022-11-19T06:09:49.862Z,2.70
2022-11-19T06:12:17.059Z,2.70
2022-11-19T06:14:44.255Z,2.60
2022-11-19T06:17:11.485Z,2.60
2022-11-19T06:19:38.829Z,2.50
2022-11-19T06:22:05.910Z,2.50
2022-11-19T06:24:33.099Z,2.50
2022-11-19T06:27:03.399Z,2.50
2022-11-19T06:29:32.710Z,2.40
2022-11-19T06:32:00.989Z,2.40
2022-11-19T06:34:28.045Z,2.40
2022-11-19T06:36:58.975Z,2.40
2022-11-19T06:39:26.145Z,2.40
2022-11-19T06:41:53.672Z,2.50
2022-11-19T06:44:20.944Z,2.50
2022-11-19T06:46:48.072Z,2.50
2022-11-19T06:49:19.913Z,2.50
2022-11-19T06:51:47.575Z,2.50
2022-11-19T06:54:14.664Z,2.50
2022-11-19T06:56:41.829Z,2.50
2022-11-19T06:59:08.711Z,2.40
2022-11-19T07:01:35.696Z,2.50
2022-11-19T07:04:02.639Z,2.40
2022-11-19T07:06:29.771Z,2.40
2022-11-19T07:09:17.953Z,2.40
2022-11-19T07:11:47.061Z,2.40
2022-11-19T07:14:14.112Z,2.40
2022-11-19T07:16:41.087Z,2.30
2022-11-19T07:19:09.030Z,2.40
2022-11-19T07:21:36.319Z,2.30
2022-11-19T07:24:06.515Z,2.30
2022-11-19T07:26:34.461Z,2.30
2022-11-19T07:29:04.845Z,2.40
2022-11-19T07:31:32.647Z,2.30
2022-11-19T07:34:00.339Z,2.30
2022-11-19T07:36:27.235Z,2.30
2022-11-19T07:38:54.213Z,2.30
2022-11-19T07:41:39.923Z,2.30
2022-11-19T07:44:06.978Z,2.30
2022-11-19T07:46:34.156Z,2.30
2022-11-19T07:49:01.075Z,2.30
2022-11-19T07:51:28.903Z,2.30
2022-11-19T07:53:58.905Z,2.30
2022-11-19T07:56:25.844Z,2.30
2022-11-19T07:58:52.797Z,2.20
2022-11-19T08:01:22.654Z,2.20
2022-11-19T08:03:56.510Z,2.20
2022-11-19T08:06:28.390Z,2.10
2022-11-19T08:08:56.385Z,2.10
2022-11-19T08:11:26.843Z,2.00
2022-11-19T08:14:02.429Z,1.90
2022-11-19T08:16:48.009Z,1.90
2022-11-19T08:19:16.404Z,1.80
2022-11-19T08:21:47.926Z,1.80
2022-11-19T08:24:20.414Z,1.80
2022-11-19T08:26:48.321Z,1.80
2022-11-19T08:29:17.614Z,1.80
2022-11-19T08:31:46.455Z,1.80
2022-11-19T08:34:13.897Z,1.70
2022-11-19T08:36:41.028Z,1.70
2022-11-19T08:39:09.347Z,1.70
2022-11-19T08:41:55.322Z,1.70
2022-11-19T08:44:24.670Z,1.70
2022-11-19T08:46:55.064Z,1.70
2022-11-19T08:49:23.424Z,1.60
2022-11-19T08:52:03.458Z,1.60
2022-11-19T08:54:30.830Z,1.50
2022-11-19T08:56:57.901Z,1.40
2022-11-19T08:59:24.987Z,1.40
2022-11-19T09:01:54.798Z,1.30
2022-11-19T09:04:24.062Z,1.30
2022-11-19T09:06:51.187Z,1.20
2022-11-19T09:09:18.236Z,1.20
2022-11-19T09:11:45.333Z,1.20
2022-11-19T09:14:12.332Z,1.20
2022-11-19T09:16:39.476Z,1.20
2022-11-19T09:19:07.792Z,1.30
2022-11-19T09:21:36.833Z,1.30
2022-11-19T09:24:04.062Z,1.30
2022-11-19T09:26:31.008Z,1.30
2022-11-19T09:28:58.091Z,1.30
2022-11-19T09:31:25.143Z,1.30
2022-11-19T09:33:53.876Z,1.30
2022-11-19T09:36:21.183Z,1.30
2022-11-19T09:38:56.680Z,1.30
2022-11-19T09:41:34.526Z,1.30
2022-11-19T09:44:16.637Z,1.40
2022-11-19T09:47:08.436Z,1.40
2022-11-19T09:49:49.173Z,1.40
2022-11-19T09:52:20.271Z,1.40
2022-11-19T09:54:53.858Z,1.50
2022-11-19T09:57:41.332Z,1.50
2022-11-19T10:00:09.796Z,1.50
2022-11-19T10:02:41.766Z,1.60
2022-11-19T10:05:15.785Z,1.50
2022-11-19T10:07:54.762Z,1.60
2022-11-19T10:10:54.827Z,1.60
2022-11-19T10:14:06.551Z,1.60
2022-11-19T10:16:36.703Z,1.60
2022-11-19T10:19:34.782Z,1.60
2022-11-19T10:22:17.318Z,1.70
2022-11-19T10:24:51.620Z,1.70
2022-11-19T10:27:24.656Z,1.70
2022-11-19T10:29:55.100Z,1.70
2022-11-19T10:32:27.983Z,1.70
2022-11-19T10:34:59.157Z,1.70
2022-11-19T10:37:33.948Z,1.70
2022-11-19T10:40:14.017Z,1.70
2022-11-19T10:42:47.504Z,1.70
2022-11-19T10:45:23.850Z,1.70
2022-11-19T10:48:09.427Z,1.70
2022-11-19T10:50:36.757Z,1.80
2022-11-19T10:53:11.629Z,1.80
2022-11-19T10:55:54.416Z,1.80
2022-11-19T10:58:36.960Z,1.80
2022-11-19T11:01:13.012Z,1.80
2022-11-19T11:04:11.718Z,1.90
2022-11-19T11:06:58.946Z,1.90
2022-11-19T11:09:44.327Z,1.90
2022-11-19T11:12:35.668Z,1.90
2022-11-19T11:15:21.780Z,2.00
2022-11-19T11:18:00.792Z,2.00
2022-11-19T11:20:29.234Z,2.00
2022-11-19T11:23:06.740Z,2.10
2022-11-19T11:25:34.084Z,2.10
2022-11-19T11:28:15.368Z,2.10
2022-11-19T11:30:53.882Z,2.10
2022-11-19T11:33:35.498Z,2.10
2022-11-19T11:36:07.172Z,2.20
2022-11-19T11:38:52.790Z,2.20
2022-11-19T11:44:36.953Z,2.20
2022-11-19T11:47:14.699Z,2.20
2022-11-19T11:49:56.981Z,2.20
2022-11-19T11:52:34.490Z,2.30
2022-11-19T11:55:07.824Z,2.30
2022-11-19T11:57:57.769Z,2.30
2022-11-19T12:00:34.391Z,2.40
2022-11-19T12:03:10.737Z,2.40
2022-11-19T12:06:16.638Z,2.40
2022-11-19T12:08:48.858Z,2.40
2022-11-19T12:11:56.823Z,2.40
2022-11-19T12:14:51.175Z,2.50
2022-11-19T12:17:39.662Z,2.50
2022-11-19T12:20:34.891Z,2.50
2022-11-19T12:23:01.862Z,2.60
2022-11-19T12:25:48.617Z,2.60
2022-11-19T12:28:46.332Z,2.60
2022-11-19T12:31:37.880Z,2.70
2022-11-19T12:34:38.761Z,2.70
2022-11-19T12:37:38.716Z,2.70
2022-11-19T12:40:38.901Z,2.70
2022-11-19T12:43:29.009Z,2.80
2022-11-19T12:46:35.225Z,2.80
2022-11-19T12:49:39.960Z,2.80
2022-11-19T12:52:19.291Z,2.80
2022-11-19T12:55:10.480Z,2.90
2022-11-19T12:57:41.664Z,2.90
2022-11-19T13:00:19.328Z,2.90
2022-11-19T13:03:04.587Z,2.90
2022-11-19T13:05:53.448Z,2.90
2022-11-19T13:08:38.106Z,3.00
2022-11-19T13:11:16.711Z,3.00
2022-11-19T13:14:11.507Z,3.00
2022-11-19T13:16:39.619Z,3.10
2022-11-19T13:19:31.570Z,3.10
2022-11-19T13:21:58.632Z,3.10
2022-11-19T13:24:43.771Z,3.10
2022-11-19T13:27:20.249Z,3.10
2022-11-19T13:30:23.327Z,3.10
2022-11-19T13:33:22.913Z,3.10
2022-11-19T13:36:08.417Z,3.10
2022-11-19T13:38:54.458Z,3.10
2022-11-19T13:42:13.640Z,3.10
2022-11-19T13:44:53.161Z,3.10
2022-11-19T13:47:59.170Z,3.10
2022-11-19T13:50:32.291Z,3.10
2022-11-19T13:53:28.632Z,3.10
2022-11-19T13:55:58.039Z,3.10
2022-11-19T13:58:38.490Z,3.10
2022-11-19T14:01:36.297Z,3.10
2022-11-19T14:04:25.660Z,3.10
2022-11-19T14:06:52.682Z,3.10
2022-11-19T14:09:28.028Z,3.00
2022-11-19T14:12:10.196Z,3.10
2022-11-19T14:15:19.588Z,3.00
2022-11-19T14:26:55.249Z,3.00
2022-11-19T14:29:29.418Z,3.00
2022-11-19T14:32:03.178Z,3.00
2022-11-19T14:34:40.429Z,3.00
2022-11-19T14:37:22.756Z,2.90
2022-11-19T14:40:15.422Z,2.90
2022-11-19T14:43:19.025Z,2.90
2022-11-19T14:46:01.855Z,2.90
2022-11-19T14:48:31.704Z,2.90
2022-11-19T14:51:12.863Z,2.80
2022-11-19T14:54:14.823Z,2.80
2022-11-19T14:56:46.447Z,2.80
2022-11-19T14:59:16.602Z,2.80
2022-11-19T15:02:01.880Z,2.70
2022-11-19T15:05:01.286Z,2.70
2022-11-19T15:07:42.144Z,2.70
2022-11-19T15:10:15.405Z,2.60
2022-11-19T15:12:45.710Z,2.60
2022-11-19T15:15:24.283Z,2.60
2022-11-19T15:18:02.424Z,2.60
2022-11-19T15:20:44.113Z,2.60
2022-11-19T15:23:48.147Z,2.50
2022-11-19T15:26:52.770Z,2.50
2022-11-19T15:29:59.973Z,2.50
2022-11-19T15:32:41.412Z,2.40
2022-11-19T15:35:46.427Z,2.40
2022-11-19T15:38:25.274Z,2.30
2022-11-19T15:40:56.673Z,2.30
2022-11-19T15:43:51.869Z,2.20
2022-11-19T15:46:41.197Z,2.20
2022-11-19T15:49:16.848Z,2.10
2022-11-19T15:52:02.367Z,2.00
2022-11-19T15:54:34.970Z,2.00
2022-11-19T15:57:16.950Z,2.00
2022-11-19T16:00:01.964Z,1.90
2022-11-19T16:02:56.844Z,1.90
2022-11-19T16:05:32.772Z,1.80
2022-11-19T16:08:08.534Z,1.80
2022-11-19T16:10:41.520Z,1.70
2022-11-19T16:13:42.464Z,1.70
2022-11-19T16:16:44.911Z,1.70
2022-11-19T16:19:17.030Z,1.60
2022-11-19T16:21:48.336Z,1.60
2022-11-19T16:24:36.819Z,1.60
2022-11-19T16:27:13.876Z,1.50
2022-11-19T16:29:42.718Z,1.50
2022-11-19T16:32:17.079Z,1.50
2022-11-19T16:34:51.690Z,1.50
2022-11-19T16:37:22.620Z,1.40
2022-11-19T16:39:54.431Z,1.40
2022-11-19T16:46:40.357Z,1.30
2022-11-19T16:49:30.651Z,1.20
2022-11-19T16:51:58.186Z,1.20
2022-11-19T16:54:47.512Z,1.20
2022-11-19T16:57:25.491Z,1.20
2022-11-19T17:00:14.016Z,1.10
2022-11-19T17:02:42.556Z,1.10
2022-11-19T17:05:24.833Z,1.10
2022-11-19T17:07:53.920Z,1.10
2022-11-19T17:10:34.621Z,1.10
2022-11-19T17:13:04.364Z,1.10
2022-11-19T17:15:39.935Z,1.10
2022-11-19T17:18:54.638Z,1.00
2022-11-19T17:21:28.287Z,1.00
2022-11-19T17:23:56.183Z,1.00
2022-11-19T17:26:26.668Z,0.90
2022-11-19T17:29:25.902Z,0.90
2022-11-19T17:31:59.364Z,0.90
2022-11-19T17:34:42.727Z,0.90
2022-11-19T17:37:11.047Z,0.90
2022-11-19T17:39:38.166Z,0.90
2022-11-19T17:42:23.986Z,0.80
2022-11-19T17:44:51.580Z,0.80
2022-11-19T17:47:24.520Z,0.70
2022-11-19T17:49:57.703Z,0.70
2022-11-19T17:52:36.140Z,0.70
2022-11-19T17:55:18.434Z,0.70
2022-11-19T17:57:45.454Z,0.70
2022-11-19T18:00:14.415Z,0.70
2022-11-19T18:02:41.414Z,0.70
2022-11-19T18:05:21.114Z,0.70
2022-11-19T18:07:48.194Z,0.70
2022-11-19T18:10:15.251Z,0.60
2022-11-19T18:12:42.224Z,0.60
2022-11-19T18:15:16.082Z,0.60
2022-11-19T18:17:43.040Z,0.60
2022-11-19T18:20:10.841Z,0.60
2022-11-19T18:22:54.003Z,0.60
2022-11-19T18:25:25.017Z,0.60
2022-11-19T18:27:52.036Z,0.50
2022-11-19T18:30:21.651Z,0.50
2022-11-19T18:32:48.942Z,0.50
2022-11-19T18:35:21.365Z,0.50
2022-11-19T18:37:49.273Z,0.50
2022-11-19T18:40:18.684Z,0.50
2022-11-19T18:43:04.209Z,0.50
2022-11-19T18:45:31.867Z,0.40
2022-11-19T18:47:59.073Z,0.40
2022-11-19T18:50:29.819Z,0.40
2022-11-19T18:52:57.364Z,0.40
2022-11-19T18:55:24.428Z,0.40
2022-11-19T18:57:51.335Z,0.30
2022-11-19T19:00:18.647Z,0.30
2022-11-19T19:02:45.730Z,0.20
2022-11-19T19:05:15.655Z,0.20
2022-11-19T19:07:42.743Z,0.20
2022-11-19T19:10:12.272Z,0.20
2022-11-19T19:12:39.168Z,0.20
2022-11-19T19:15:08.002Z,0.20
2022-11-19T19:17:35.039Z,0.20
2022-11-19T19:20:04.597Z,0.20
2022-11-19T19:22:31.546Z,0.20
2022-11-19T19:24:58.675Z,0.20
2022-11-19T19:27:26.110Z,0.10
2022-11-19T19:29:53.123Z,0.10
2022-11-19T19:32:21.071Z,0.10
2022-11-19T19:34:48.187Z,0.10
2022-11-19T19:37:15.422Z,0.10
2022-11-19T19:39:42.442Z,0.10
2022-11-19T19:42:09.618Z,0.10
2022-11-19T19:44:37.062Z,0.10
2022-11-19T19:47:09.117Z,0.00
2022-11-19T19:49:39.126Z,0.00
2022-11-19T19:52:06.441Z,0.00
2022-11-19T19:54:33.610Z,0.00
2022-11-19T19:57:00.869Z,0.00
2022-11-19T19:59:27.972Z,0.00
2022-11-19T20:01:55.343Z,0.00
2022-11-19T20:04:23.533Z,-0.10
2022-11-19T20:06:52.567Z,-0.10
2022-11-19T20:09:19.661Z,-0.10
2022-11-19T20:11:47.308Z,-0.10
2022-11-19T20:14:14.317Z,-0.10
2022-11-19T20:16:41.823Z,-0.10
2022-11-19T20:19:13.123Z,-0.10
2022-11-19T20:21:41.147Z,-0.10
2022-11-19T20:24:12.093Z,-0.10
2022-11-19T20:26:40.483Z,-0.10
2022-11-19T20:29:08.961Z,-0.10
2022-11-19T20:31:36.035Z,-0.20
2022-11-19T20:34:05.066Z,-0.10
2022-11-19T20:36:34.595Z,-0.20
2022-11-19T20:39:02.113Z,-0.20
2022-11-19T20:41:48.017Z,-0.20
2022-11-19T20:44:20.555Z,-0.20
2022-11-19T20:46:58.888Z,-0.20
2022-11-19T20:49:28.434Z,-0.20
2022-11-19T20:51:56.220Z,-0.30
2022-11-19T20:54:24.886Z,-0.30
2022-11-19T20:56:53.264Z,-0.30
2022-11-19T20:59:25.545Z,-0.30
2022-11-19T21:01:53.960Z,-0.30
2022-11-19T21:04:22.004Z,-0.30
2022-11-19T21:06:53.993Z,-0.30
2022-11-19T21:09:21.651Z,-0.30
2022-11-19T21:11:51.814Z,-0.30
2022-11-19T21:14:18.999Z,-0.30
2022-11-19T21:16:54.493Z,-0.30
2022-11-19T21:19:21.699Z,-0.30
2022-11-19T21:21:48.811Z,-0.40
2022-11-19T21:24:22.110Z,-0.30
2022-11-19T21:26:55.039Z,-0.40
2022-11-19T21:29:22.390Z,-0.40
2022-11-19T21:31:49.569Z,-0.40
2022-11-19T21:34:18.919Z,-0.40
2022-11-19T21:36:46.422Z,-0.50
2022-11-19T21:39:15.240Z,-0.50
2022-11-19T21:41:43.360Z,-0.50
2022-11-19T21:44:10.995Z,-0.60
2022-11-19T21:46:40.506Z,-0.60
2022-11-19T21:49:08.785Z,-0.60
2022-11-19T21:51:35.734Z,-0.70
2022-11-19T21:54:03.932Z,-0.70
2022-11-19T21:56:35.457Z,-0.70
2022-11-19T21:59:05.531Z,-0.70
2022-11-19T22:01:44.836Z,-0.70
2022-11-19T22:04:16.294Z,-0.80
2022-11-19T22:06:43.333Z,-0.80
2022-11-19T22:09:10.551Z,-0.90
2022-11-19T22:11:37.473Z,-0.90
2022-11-19T22:14:08.203Z,-0.90
2022-11-19T22:16:44.625Z,-0.90
2022-11-19T22:19:12.683Z,-0.90
2022-11-19T22:21:47.885Z,-0.90
2022-11-19T22:24:16.290Z,-1.00
2022-11-19T22:26:43.537Z,-0.90
2022-11-19T22:29:10.889Z,-0.90
2022-11-19T22:31:38.078Z,-0.90
2022-11-19T22:34:05.244Z,-0.90
2022-11-19T22:37:21.269Z,-0.80
2022-11-19T22:39:54.468Z,-0.80
2022-11-19T22:42:21.514Z,-0.80
2022-11-19T22:44:48.372Z,-0.80
2022-11-19T22:47:18.644Z,-0.80
2022-11-19T22:49:51.635Z,-0.80
2022-11-19T22:52:19.203Z,-0.80
2022-11-19T22:54:46.147Z,-0.80
2022-11-19T22:57:13.080Z,-0.90
2022-11-19T22:59:40.029Z,-0.90
2022-11-19T23:02:07.246Z,-0.90
2022-11-19T23:04:34.255Z,-0.90
2022-11-19T23:07:01.404Z,-1.00
2022-11-19T23:09:45.278Z,-1.00
2022-11-19T23:12:31.391Z,-1.00
2022-11-19T23:14:58.697Z,-1.00
2022-11-19T23:17:31.160Z,-1.10
2022-11-19T23:20:04.261Z,-1.10
2022-11-19T23:22:34.802Z,-1.10
2022-11-19T23:25:07.056Z,-1.10
2022-11-19T23:27:36.342Z,-1.10
2022-11-19T23:30:03.902Z,-1.10
2022-11-19T23:32:35.730Z,-1.10
2022-11-19T23:35:02.719Z,-1.20
2022-11-19T23:37:29.689Z,-1.20
2022-11-19T23:39:56.670Z,-1.20
2022-11-19T23:42:23.943Z,-1.20
2022-11-19T23:44:51.147Z,-1.20
2022-11-19T23:47:18.219Z,-1.20
2022-11-19T23:49:45.365Z,-1.20
2022-11-19T23:52:12.537Z,-1.20
2022-11-19T23:55:22.697Z,-1.20
